Terminal Aerodrome Forecast
Issued by NWS Springfield, MO

Current Version | Previous Version | Text Only | Print | Product List | Glossary On
Versions: 1 2 3 4 5 6 7 8 9 10 11 12 13 14 15 16 17 18 19 20 21 22
604
FTUS43 KSGF 211745 CCA
TAFSGF
TAF COR
KSGF 211745Z 2118/2218 36008KT P6SM BKN015 OVC025
      TEMPO 2118/2120 3SM -RADZ BR OVC015
     FM212000 36008KT P6SM OVC025
     FM212200 36008KT P6SM BKN035
     FM220200 01005KT P6SM SCT150
     FM220800 VRB03KT 1/4SM FG FEW045
     FM221400 19005KT P6SM FEW008
     FM221600 19006KT P6SM FEW150=

USA.gov is the U.S. government's official web portal to all federal, state and local government web resources and services.